»·PEaware :: UAL1399 KGJT-KASE

UAL1399 :: KGJT-KASE

FLIGHT INFORMATION

Flight Status: Arrived
Operator:
United Airlines
More flights by this operator :: More flights under this callsign
Pilot: David C. (16084)
Aircraft: SAAB 340
(SF34)
More flights by this aircraft type
Origin: KGJT Walker
United States
Destination: KASE Aspen-Pitkin Co/Sardy
United States
More flights between these airports :: More routes between these airports
Route: JNC7 PACES V134 DBL
File this flight plan on PilotEdge
Remarks:
Altitude:
(Current/Filed)
15,000ft
Speed:
(Current/Filed)
286kts
Departed: 20-Jun-18 01:49 PM
Arrived: 20-Jun-18 02:18 PM
Distance/Time
Traveled:
77nm/0:28
Distance/Time
To Go:
Arrived

Flight Plot

Page will automatically refresh every two minutes.

Flight plan parsing failed; only flown route is shown


Map Options




Map Legend


Flown Route
Filed Route
Departure Airport
Arrival Airport
Navaid (VOR, NDB)
Fix

Horizontal Profiles

Position Reports

Time Latitude Longitude Heading Altitude Ground
Speed
20-Jun-18 13:24 39.123285 -108.528952 317 4862ft 0kts
20-Jun-18 13:25 39.123285 -108.528952 317 4862ft 0kts
20-Jun-18 13:26 39.123285 -108.528952 317 4862ft 0kts
20-Jun-18 13:27 39.123285 -108.528952 317 4862ft 0kts
20-Jun-18 13:28 39.123285 -108.528952 317 4862ft 0kts
20-Jun-18 13:29 39.123285 -108.528952 317 4862ft 0kts
20-Jun-18 13:30 39.123285 -108.528952 317 4862ft 0kts
20-Jun-18 13:31 39.123285 -108.528952 317 4862ft 0kts
20-Jun-18 13:32 39.123285 -108.528952 317 4862ft 0kts
20-Jun-18 13:33 39.123285 -108.528952 317 4862ft 0kts
20-Jun-18 13:34 39.123285 -108.528952 317 4862ft 0kts
20-Jun-18 13:35 39.123285 -108.528952 317 4862ft 0kts
20-Jun-18 13:36 39.123285 -108.528952 317 4862ft 0kts
20-Jun-18 13:37 39.123285 -108.528952 317 4862ft 0kts
20-Jun-18 13:38 39.123285 -108.528952 317 4862ft 0kts
20-Jun-18 13:39 39.123285 -108.528952 317 4862ft 0kts
20-Jun-18 13:40 39.123285 -108.528952 317 4862ft 0kts
20-Jun-18 13:41 39.123285 -108.528952 317 4862ft 0kts
20-Jun-18 13:42 39.123285 -108.528952 317 4862ft 0kts
20-Jun-18 13:43 39.124367 -108.527613 88 4862ft 18kts
20-Jun-18 13:44 39.120589 -108.520600 125 4862ft 21kts
20-Jun-18 13:45 39.118285 -108.516391 124 4862ft 0kts
20-Jun-18 13:46 39.118285 -108.516391 124 4862ft 0kts
20-Jun-18 13:47 39.118284 -108.516390 124 4862ft 0kts
20-Jun-18 13:48 39.118826 -108.514955 306 4862ft 0kts
20-Jun-18 13:49 39.133926 -108.542789 302 5506ft 165kts
20-Jun-18 13:50 39.132116 -108.607987 247 7335ft 210kts
20-Jun-18 13:51 39.106558 -108.674283 244 9211ft 203kts
20-Jun-18 13:52 39.081800 -108.736627 244 11119ft 198kts
20-Jun-18 13:53 39.045664 -108.779113 156 12794ft 208kts
20-Jun-18 13:54 39.053068 -108.720738 40 14364ft 199kts
20-Jun-18 13:55 39.086780 -108.658531 68 15011ft 244kts
20-Jun-18 13:56 39.106269 -108.568577 71 15005ft 272kts
20-Jun-18 13:57 39.126087 -108.472681 71 15002ft 280kts
20-Jun-18 13:58 39.146052 -108.375639 71 15002ft 282kts
20-Jun-18 13:59 39.162063 -108.297487 72 14999ft 282kts
20-Jun-18 14:00 39.181966 -108.199935 72 15000ft 282kts
20-Jun-18 14:01 39.205184 -108.085556 72 15005ft 283kts
20-Jun-18 14:02 39.224994 -107.987469 72 15013ft 283kts
20-Jun-18 14:03 39.244756 -107.889288 72 15025ft 283kts
20-Jun-18 14:04 39.264340 -107.791529 72 15034ft 283kts
20-Jun-18 14:05 39.283913 -107.693221 72 15037ft 283kts
20-Jun-18 14:06 39.300114 -107.611507 72 15038ft 283kts
20-Jun-18 14:07 39.318420 -107.518771 72 15038ft 283kts
20-Jun-18 14:08 39.336736 -107.425288 72 15075ft 282kts
20-Jun-18 14:09 39.354334 -107.335126 72 14957ft 227kts
20-Jun-18 14:10 39.368003 -107.265144 71 14989ft 194kts
20-Jun-18 14:11 39.387877 -107.205309 67 14798ft 178kts
20-Jun-18 14:12 39.392084 -107.136489 95 14780ft 193kts
20-Jun-18 14:13 39.375691 -107.067872 114 13731ft 199kts
20-Jun-18 14:14 39.352216 -107.005549 119 13119ft 190kts
20-Jun-18 14:15 39.324227 -106.948104 121 12608ft 170kts
20-Jun-18 14:16 39.295067 -106.903807 152 10138ft 162kts
20-Jun-18 14:17 39.253540 -106.883522 159 8428ft 158kts
20-Jun-18 14:18 39.219663 -106.867218 155 7841ft 13kts

Navigation Log

Ident Type
Flight plan parsing failed, navigation log unavailable